Time;durP1;ratioP1;P1;durP2;ratioP2;P2;SDS_P1;SDS_P2;PMS_P1;PMS_P2;Temp;Humidity;BMP_temperature;BMP_pressure;BME280_temperature;BME280_humidity;BME280_pressure;Samples;Min_cycle;Max_cycle;Signal;HPM_P1;HPM_P2
2023/01/17 00:02:29;;;;;;;2.92;1.00;;;7.70;99.90;;;;;;10213155;28;20428;-68
2023/01/17 00:13:01;;;;;;;1.17;0.70;;;7.70;99.90;;;;;;10208210;28;20446;-68
2023/01/17 00:18:02;;;;;;;1.27;0.70;;;7.70;99.90;;;;;;10197921;28;20039;-68
2023/01/17 01:37:08;;;;;;;1.90;0.43;;;7.60;99.90;;;;;;10178778;28;20075;-67
2023/01/17 01:42:17;;;;;;;0.68;0.50;;;7.50;99.90;;;;;;10157371;28;20040;-67
2023/01/17 01:47:30;;;;;;;0.90;0.50;;;7.50;99.90;;;;;;10212929;28;20024;-68
2023/01/17 01:52:33;;;;;;;1.73;0.30;;;7.50;99.90;;;;;;10202068;28;20288;-68
2023/01/17 01:57:38;;;;;;;0.65;0.40;;;7.60;99.90;;;;;;10231580;28;20051;-67
2023/01/17 02:02:43;;;;;;;0.55;0.30;;;8.30;99.90;;;;;;10148912;28;20062;-68
2023/01/17 02:08:14;;;;;;;0.50;0.32;;;7.60;99.90;;;;;;10176907;28;20394;-68
2023/01/17 02:13:18;;;;;;;2.08;0.40;;;7.50;99.90;;;;;;10181461;28;20086;-68
2023/01/17 02:18:37;;;;;;;0.43;0.30;;;7.50;99.90;;;;;;10198824;28;20358;-68
2023/01/17 02:23:59;;;;;;;0.50;0.50;;;7.50;99.90;;;;;;10146015;28;20024;-68
2023/01/17 02:29:05;;;;;;;0.75;0.40;;;7.50;99.90;;;;;;10205604;28;20036;-68
2023/01/17 02:34:30;;;;;;;1.70;0.43;;;7.50;99.90;;;;;;10224893;28;20028;-68
2023/01/17 02:40:06;;;;;;;0.30;0.30;;;7.50;99.90;;;;;;10180653;28;20043;-68
2023/01/17 02:45:08;;;;;;;0.65;0.30;;;7.50;99.90;;;;;;10206659;28;20063;-68
2023/01/17 02:50:13;;;;;;;0.30;0.20;;;7.40;99.90;;;;;;10181456;28;20044;-68
2023/01/17 02:55:38;;;;;;;1.58;0.30;;;7.40;99.90;;;;;;10172906;28;20024;-67
2023/01/17 03:01:00;;;;;;;0.80;0.30;;;7.40;99.90;;;;;;10143521;28;20090;-68
2023/01/17 03:06:16;;;;;;;1.45;0.40;;;7.40;99.90;;;;;;10191638;28;20051;-68
2023/01/17 03:11:16;;;;;;;0.40;0.22;;;7.40;99.90;;;;;;10166578;28;20236;-68
2023/01/17 03:16:19;;;;;;;0.77;0.30;;;7.40;99.90;;;;;;10151755;28;20384;-67
2023/01/17 03:21:22;;;;;;;1.63;0.30;;;7.40;99.90;;;;;;10148269;28;20020;-67
2023/01/17 03:26:22;;;;;;;0.20;0.10;;;7.40;99.90;;;;;;10237814;28;20035;-67
2023/01/17 03:31:23;;;;;;;0.45;0.30;;;7.40;99.90;;;;;;10166958;28;20036;-67
2023/01/17 03:36:23;;;;;;;0.93;0.32;;;7.40;99.90;;;;;;10181707;28;20034;-67
2023/01/17 03:41:24;;;;;;;0.30;0.20;;;7.40;99.90;;;;;;10146746;28;20096;-67
2023/01/17 03:46:27;;;;;;;1.17;0.47;;;7.40;99.90;;;;;;10157974;28;20028;-67
2023/01/17 03:51:27;;;;;;;0.52;0.20;;;7.30;99.90;;;;;;10155988;28;20469;-67
2023/01/17 03:56:28;;;;;;;0.45;0.30;;;7.30;99.90;;;;;;10156371;28;20040;-67
2023/01/17 04:01:29;;;;;;;1.42;0.20;;;7.30;99.90;;;;;;10146818;28;20574;-68
2023/01/17 04:06:29;;;;;;;0.82;0.20;;;7.30;99.90;;;;;;10148185;28;20051;-67
2023/01/17 04:11:30;;;;;;;0.17;0.17;;;7.30;99.90;;;;;;10143046;28;20140;-68
2023/01/17 04:16:32;;;;;;;3.92;1.60;;;7.30;99.90;;;;;;10141759;28;20409;-67
2023/01/17 04:21:33;;;;;;;2.35;0.30;;;7.30;99.90;;;;;;10157342;28;20086;-68
2023/01/17 04:26:33;;;;;;;0.75;0.30;;;7.30;99.90;;;;;;10196281;28;20047;-67
2023/01/17 04:31:34;;;;;;;0.93;0.35;;;7.30;99.90;;;;;;10193857;28;20390;-69
2023/01/17 04:36:34;;;;;;;0.50;0.43;;;7.20;99.90;;;;;;10150115;28;20028;-68
2023/01/17 04:41:35;;;;;;;0.10;0.10;;;7.20;99.90;;;;;;10177157;28;20014;-68
2023/01/17 04:46:35;;;;;;;1.45;0.40;;;7.20;99.90;;;;;;10184720;28;20790;-68
2023/01/17 04:51:36;;;;;;;0.30;0.20;;;7.20;99.90;;;;;;10203021;28;20016;-68
2023/01/17 04:56:37;;;;;;;0.47;0.17;;;7.20;99.90;;;;;;10182434;28;20108;-68
2023/01/17 05:01:37;;;;;;;0.90;0.20;;;7.20;99.90;;;;;;10151019;28;20048;-68
2023/01/17 05:06:38;;;;;;;0.50;0.22;;;7.20;99.90;;;;;;10194027;28;20522;-68
2023/01/17 05:11:38;;;;;;;0.93;0.20;;;7.20;99.90;;;;;;10207047;28;20111;-68
2023/01/17 05:16:39;;;;;;;1.65;0.40;;;7.20;99.90;;;;;;10142446;28;20024;-68
2023/01/17 05:21:40;;;;;;;0.30;0.15;;;7.20;99.90;;;;;;10155619;28;20163;-68
2023/01/17 05:26:41;;;;;;;0.35;0.10;;;7.10;99.90;;;;;;10151724;28;20550;-68
2023/01/17 05:31:42;;;;;;;1.20;0.20;;;7.10;99.90;;;;;;10164156;28;20029;-68
2023/01/17 05:36:43;;;;;;;0.90;0.20;;;7.10;99.90;;;;;;10154505;28;20035;-68
2023/01/17 05:41:44;;;;;;;1.15;0.30;;;7.10;99.90;;;;;;10150711;28;20529;-68
2023/01/17 05:46:44;;;;;;;0.63;0.28;;;7.10;99.90;;;;;;10153971;28;20036;-68
2023/01/17 05:51:45;;;;;;;2.65;0.20;;;7.10;99.90;;;;;;10184178;28;20020;-68
2023/01/17 05:56:46;;;;;;;0.70;0.13;;;7.10;99.90;;;;;;10154770;28;20115;-67
2023/01/17 06:01:46;;;;;;;0.60;0.20;;;7.10;99.90;;;;;;10177685;28;20394;-67
2023/01/17 06:06:47;;;;;;;0.20;0.10;;;7.10;99.90;;;;;;10181705;28;20052;-67
2023/01/17 06:11:47;;;;;;;0.47;0.30;;;7.10;99.90;;;;;;10162705;28;20764;-67
2023/01/17 06:16:48;;;;;;;0.65;0.20;;;7.00;99.90;;;;;;10180241;28;20541;-67
2023/01/17 06:21:48;;;;;;;0.55;0.30;;;7.00;99.90;;;;;;10160894;28;20837;-67
2023/01/17 06:26:49;;;;;;;0.95;0.20;;;7.20;99.90;;;;;;10207169;28;20043;-67
2023/01/17 06:31:50;;;;;;;0.20;0.20;;;7.00;99.90;;;;;;10220507;28;20106;-67
2023/01/17 06:36:50;;;;;;;1.48;0.30;;;7.00;99.90;;;;;;10195616;28;20028;-67
2023/01/17 06:41:51;;;;;;;0.43;0.20;;;7.00;99.90;;;;;;10186070;28;20040;-67
2023/01/17 06:46:52;;;;;;;1.55;0.20;;;7.00;99.90;;;;;;10152135;28;20032;-67
2023/01/17 06:51:53;;;;;;;0.75;0.60;;;7.00;99.90;;;;;;10138729;28;20040;-67
2023/01/17 06:56:53;;;;;;;0.25;0.10;;;7.00;99.90;;;;;;10129960;28;20556;-67
2023/01/17 07:01:54;;;;;;;1.13;0.28;;;7.00;99.90;;;;;;10152737;28;20080;-69
2023/01/17 07:06:54;;;;;;;1.23;0.68;;;6.90;99.90;;;;;;10162711;28;20146;-67
2023/01/17 07:12:00;;;;;;;0.32;0.20;;;6.90;99.90;;;;;;10175125;28;20016;-67
2023/01/17 07:17:03;;;;;;;1.15;0.38;;;6.90;99.90;;;;;;10146006;28;20220;-67
2023/01/17 07:22:04;;;;;;;0.60;0.22;;;7.50;99.90;;;;;;10158166;28;20028;-64
2023/01/17 07:27:06;;;;;;;0.65;0.20;;;6.90;99.90;;;;;;10186920;28;20569;-67
2023/01/17 07:32:08;;;;;;;1.55;0.25;;;6.90;99.90;;;;;;10152655;28;20213;-68
2023/01/17 07:37:08;;;;;;;0.70;0.30;;;6.90;99.90;;;;;;10154417;28;20044;-67
2023/01/17 07:42:09;;;;;;;0.43;0.20;;;6.90;99.90;;;;;;10146006;28;20515;-68
2023/01/17 07:47:10;;;;;;;0.82;0.30;;;6.90;99.90;;;;;;10169510;28;20036;-67
2023/01/17 07:52:11;;;;;;;3.20;0.30;;;6.90;99.90;;;;;;10198490;28;20041;-67
2023/01/17 07:57:11;;;;;;;1.52;0.17;;;6.90;99.90;;;;;;10165395;28;20042;-67
2023/01/17 08:02:17;;;;;;;0.63;0.20;;;6.90;99.90;;;;;;10165653;28;20036;-67
2023/01/17 08:07:17;;;;;;;0.40;0.30;;;6.90;99.90;;;;;;10166195;28;20644;-67
2023/01/17 08:12:18;;;;;;;3.38;0.28;;;6.80;99.90;;;;;;10179641;28;20208;-68
2023/01/17 08:17:20;;;;;;;0.82;0.32;;;6.80;99.90;;;;;;10155233;28;20036;-68
2023/01/17 08:22:21;;;;;;;0.40;0.10;;;6.80;99.90;;;;;;10132751;28;20044;-66
2023/01/17 08:27:21;;;;;;;0.57;0.20;;;6.80;99.90;;;;;;10150378;28;20036;-68
2023/01/17 08:32:22;;;;;;;1.65;0.30;;;6.80;99.90;;;;;;10156453;28;20028;-67
2023/01/17 08:37:23;;;;;;;1.08;0.50;;;6.80;99.90;;;;;;10145424;28;20039;-67
2023/01/17 08:42:24;;;;;;;0.30;0.25;;;6.80;99.90;;;;;;10165251;28;20028;-67
2023/01/17 08:47:25;;;;;;;1.13;0.20;;;6.80;99.90;;;;;;10146066;28;20032;-67
2023/01/17 08:52:26;;;;;;;2.15;0.20;;;6.80;99.90;;;;;;10155233;28;20033;-67
2023/01/17 08:57:27;;;;;;;1.85;0.43;;;6.80;99.90;;;;;;10156768;28;20371;-68
2023/01/17 09:02:28;;;;;;;0.88;0.28;;;6.80;99.90;;;;;;10157422;28;20453;-67
2023/01/17 09:07:28;;;;;;;0.93;0.40;;;6.80;99.90;;;;;;10158655;28;20339;-67
2023/01/17 09:12:33;;;;;;;1.42;0.30;;;6.80;99.90;;;;;;10182098;28;20615;-68
2023/01/17 09:17:33;;;;;;;1.38;0.30;;;6.90;99.90;;;;;;10177806;28;20337;-67
2023/01/17 09:22:36;;;;;;;0.93;0.60;;;6.90;99.90;;;;;;10147650;28;20028;-67
2023/01/17 09:27:37;;;;;;;0.93;0.40;;;6.90;99.90;;;;;;10215368;28;20066;-67
2023/01/17 09:32:37;;;;;;;1.27;0.32;;;6.90;99.90;;;;;;10158506;28;20071;-68
2023/01/17 09:37:38;;;;;;;0.70;0.13;;;7.00;99.90;;;;;;10208737;28;20014;-66
2023/01/17 09:42:40;;;;;;;1.38;0.40;;;7.10;99.90;;;;;;10191424;28;20386;-67
2023/01/17 09:47:47;;;;;;;1.50;0.35;;;7.00;99.90;;;;;;10155981;28;20044;-59
2023/01/17 09:52:47;;;;;;;1.65;0.30;;;7.10;99.90;;;;;;10179183;28;20062;-67
2023/01/17 09:57:57;;;;;;;0.70;0.30;;;7.10;99.90;;;;;;10156188;28;20074;-67
2023/01/17 10:03:33;;;;;;;1.50;0.55;;;7.10;99.90;;;;;;10189842;28;20028;-67
2023/01/17 10:08:57;;;;;;;0.70;0.35;;;7.10;99.90;;;;;;10198103;28;20111;-67
2023/01/17 10:14:24;;;;;;;2.28;0.50;;;7.10;99.90;;;;;;10202814;28;20240;-67
2023/01/17 10:20:00;;;;;;;1.10;0.63;;;7.20;99.90;;;;;;10158204;28;20326;-68
2023/01/17 10:25:39;;;;;;;1.90;0.30;;;7.20;99.90;;;;;;10171644;28;20018;-67
2023/01/17 10:30:47;;;;;;;;;;;7.30;99.90;;;;;;10214595;28;20043;-68
2023/01/17 10:35:57;;;;;;;1.63;0.35;;;7.30;99.90;;;;;;10237235;28;19961;-68
2023/01/17 10:41:03;;;;;;;1.10;0.50;;;7.40;99.90;;;;;;10171117;28;20018;-68
2023/01/17 10:46:04;;;;;;;7.75;0.77;;;7.40;99.90;;;;;;10146374;28;20503;-67
2023/01/17 10:51:15;;;;;;;2.35;0.52;;;7.40;99.90;;;;;;10167932;28;20030;-71
2023/01/17 10:56:18;;;;;;;0.88;0.40;;;7.50;99.90;;;;;;10238286;28;20047;-68
2023/01/17 11:01:20;;;;;;;2.58;0.57;;;7.60;99.90;;;;;;10195909;28;20041;-69
2023/01/17 11:06:24;;;;;;;2.03;0.50;;;7.60;99.90;;;;;;10138672;28;20480;-68
2023/01/17 11:11:29;;;;;;;1.33;0.75;;;7.60;99.90;;;;;;10182021;28;20033;-69
2023/01/17 11:16:31;;;;;;;1.15;0.60;;;7.60;99.90;;;;;;10159315;28;20028;-69
2023/01/17 11:21:32;;;;;;;1.80;0.90;;;7.70;99.90;;;;;;10180924;28;20373;-72
2023/01/17 11:26:35;;;;;;;3.45;0.85;;;7.80;99.90;;;;;;10143267;28;20071;-64
2023/01/17 11:31:35;;;;;;;4.25;0.73;;;7.80;99.90;;;;;;10165867;28;20032;-70
2023/01/17 11:36:36;;;;;;;2.17;0.75;;;7.80;99.90;;;;;;10148697;28;20024;-72
2023/01/17 11:41:39;;;;;;;2.00;0.90;;;7.80;99.90;;;;;;10156499;28;20029;-71
2023/01/17 11:46:40;;;;;;;3.47;0.90;;;7.80;99.90;;;;;;10158161;28;20074;-71
2023/01/17 11:51:42;;;;;;;2.15;0.73;;;7.90;99.90;;;;;;10181205;28;20445;-71
2023/01/17 11:56:45;;;;;;;1.98;0.80;;;7.90;99.90;;;;;;10215353;28;20024;-70
2023/01/17 12:02:02;;;;;;;1.75;0.70;;;7.90;99.90;;;;;;10184688;28;20079;-70
2023/01/17 12:07:40;;;;;;;1.35;0.85;;;7.90;99.90;;;;;;10176901;28;20020;-72
2023/01/17 12:18:30;;;;;;;1.45;0.98;;;7.90;99.90;;;;;;10155425;28;20028;-71
2023/01/17 12:23:53;;;;;;;3.30;1.13;;;7.90;99.90;;;;;;10158423;28;20028;-67
2023/01/17 12:29:31;;;;;;;3.97;1.45;;;7.90;99.90;;;;;;10161264;28;20055;-66
2023/01/17 12:34:56;;;;;;;2.53;0.75;;;7.90;99.90;;;;;;10140887;28;20028;-65
2023/01/17 12:40:13;;;;;;;2.97;0.93;;;7.90;99.90;;;;;;10181687;28;20028;-64
2023/01/17 12:45:23;;;;;;;1.92;0.77;;;7.90;99.90;;;;;;10170246;28;20559;-68
2023/01/17 12:50:38;;;;;;;2.80;0.98;;;7.90;99.90;;;;;;10166805;28;20131;-69
2023/01/17 12:55:52;;;;;;;6.38;1.23;;;7.90;99.90;;;;;;10172880;28;20063;-69
2023/01/17 13:01:04;;;;;;;3.03;0.93;;;7.90;99.90;;;;;;10164381;28;1056797;-63
2023/01/17 13:06:06;;;;;;;5.75;1.15;;;7.90;99.90;;;;;;10176450;28;20021;-69
2023/01/17 13:11:34;;;;;;;4.72;1.17;;;7.80;99.90;;;;;;10190108;28;20044;-65
2023/01/17 13:16:49;;;;;;;6.07;1.30;;;7.80;99.90;;;;;;10169051;28;20032;-68
2023/01/17 13:21:51;;;;;;;7.35;2.13;;;7.90;99.90;;;;;;10157749;28;20022;-68
2023/01/17 13:26:54;;;;;;;4.20;1.20;;;7.90;99.90;;;;;;10152309;28;20027;-66
2023/01/17 13:32:16;;;;;;;3.58;1.00;;;8.60;99.90;;;;;;10158303;28;20085;-66
2023/01/17 13:37:42;;;;;;;2.97;1.20;;;7.90;99.90;;;;;;10163962;28;20028;-67
2023/01/17 13:42:58;;;;;;;2.42;1.27;;;7.90;99.90;;;;;;10209179;28;20101;-67
2023/01/17 13:48:15;;;;;;;4.47;0.98;;;7.90;99.90;;;;;;10163708;28;20044;-66
2023/01/17 13:53:35;;;;;;;6.53;1.58;;;7.90;99.90;;;;;;10207196;28;20032;-66
2023/01/17 13:58:47;;;;;;;4.20;1.25;;;7.90;99.90;;;;;;10173498;28;20519;-65
2023/01/17 14:03:48;;;;;;;2.00;1.25;;;7.90;99.90;;;;;;10187306;28;20451;-66
2023/01/17 14:08:48;;;;;;;11.73;1.40;;;7.90;99.90;;;;;;10213108;28;20038;-66
2023/01/17 14:13:50;;;;;;;5.78;1.33;;;7.90;99.90;;;;;;10190078;28;20032;-66
2023/01/17 14:18:55;;;;;;;3.03;1.02;;;7.90;99.90;;;;;;10162780;28;20048;-67
2023/01/17 14:24:11;;;;;;;2.25;0.95;;;7.90;99.90;;;;;;10155812;28;20032;-66
2023/01/17 14:29:45;;;;;;;4.75;1.00;;;8.00;99.90;;;;;;10173882;28;20035;-66
2023/01/17 14:34:48;;;;;;;6.10;1.50;;;8.00;99.90;;;;;;10203085;28;20104;-65
2023/01/17 14:39:50;;;;;;;3.60;1.63;;;7.90;99.90;;;;;;10172532;28;21077;-68
2023/01/17 14:45:02;;;;;;;6.32;1.25;;;7.90;99.90;;;;;;10161650;28;20107;-65
2023/01/17 14:50:39;;;;;;;1.80;1.05;;;7.90;99.90;;;;;;10156191;28;20047;-62
2023/01/17 14:55:56;;;;;;;2.20;1.10;;;7.90;99.90;;;;;;10224533;28;20059;-67
2023/01/17 15:01:00;;;;;;;7.53;1.15;;;7.90;99.90;;;;;;10200742;28;20040;-67
2023/01/17 15:06:17;;;;;;;3.83;1.02;;;7.80;99.90;;;;;;10168378;28;20041;-69
2023/01/17 15:11:24;;;;;;;3.22;1.00;;;7.70;99.90;;;;;;10194837;28;20044;-73
2023/01/17 15:16:32;;;;;;;1.23;0.73;;;7.70;99.90;;;;;;10153983;28;20024;-69
2023/01/17 15:21:41;;;;;;;3.40;1.30;;;7.70;99.90;;;;;;10163525;28;20028;-66
2023/01/17 15:26:42;;;;;;;2.15;1.45;;;7.60;99.90;;;;;;10158538;28;20530;-67
2023/01/17 15:31:47;;;;;;;2.58;0.95;;;7.60;99.90;;;;;;10165206;28;20102;-67
2023/01/17 15:36:48;;;;;;;4.20;1.10;;;7.50;99.90;;;;;;10154118;28;20509;-67
2023/01/17 15:41:55;;;;;;;2.83;0.93;;;7.50;99.90;;;;;;10203373;28;20036;-69
2023/01/17 15:46:56;;;;;;;2.80;1.40;;;7.40;99.90;;;;;;10181920;28;20029;-66
2023/01/17 15:52:12;;;;;;;1.77;0.88;;;7.40;99.90;;;;;;10227816;28;20024;-65
2023/01/17 15:57:23;;;;;;;6.40;1.55;;;7.40;99.90;;;;;;10168053;28;20032;-64
2023/01/17 16:02:32;;;;;;;5.40;1.38;;;7.40;99.90;;;;;;10175206;28;20094;-72
2023/01/17 16:07:34;;;;;;;4.28;1.45;;;7.50;99.90;;;;;;10154263;28;20040;-71
2023/01/17 16:12:35;;;;;;;2.85;1.33;;;7.50;99.90;;;;;;10144990;28;20473;-76
2023/01/17 16:17:36;;;;;;;2.22;1.20;;;7.50;99.90;;;;;;10138776;28;20043;-76
2023/01/17 16:22:37;;;;;;;3.00;1.50;;;7.40;99.90;;;;;;10139982;28;20251;-76
2023/01/17 16:27:40;;;;;;;4.05;1.30;;;7.40;99.90;;;;;;10163821;28;20036;-76
2023/01/17 16:38:02;;;;;;;5.15;0.90;;;7.30;99.90;;;;;;10903746;23;20940;-75
2023/01/17 16:43:03;;;;;;;1.67;1.15;;;7.90;99.90;;;;;;10466557;23;20049;-73
2023/01/17 16:48:04;;;;;;;2.63;1.35;;;7.20;99.90;;;;;;10116899;28;20035;-73
2023/01/17 16:53:05;;;;;;;5.65;1.45;;;7.30;99.90;;;;;;10120059;28;20021;-73
2023/01/17 16:58:05;;;;;;;3.40;1.55;;;7.20;99.90;;;;;;10133352;28;20488;-74
2023/01/17 17:03:06;;;;;;;3.58;1.25;;;7.20;99.90;;;;;;10109341;28;20027;-73
2023/01/17 17:13:11;;;;;;;2.63;1.30;;;6.80;99.90;;;;;;10165661;28;20057;-69
2023/01/17 17:18:14;;;;;;;2.03;1.30;;;7.00;99.90;;;;;;10145736;28;20049;-70
2023/01/17 17:23:14;;;;;;;2.75;1.55;;;7.00;99.90;;;;;;10159877;28;20028;-70
2023/01/17 17:28:15;;;;;;;2.40;1.42;;;6.90;99.90;;;;;;10129574;28;20033;-71
2023/01/17 17:33:16;;;;;;;4.03;1.27;;;6.90;99.90;;;;;;10106157;28;20036;-70
2023/01/17 17:38:16;;;;;;;3.72;1.45;;;6.90;99.90;;;;;;10102845;28;20112;-71
2023/01/17 17:43:17;;;;;;;3.50;1.38;;;7.00;99.90;;;;;;10106438;28;20073;-71
2023/01/17 17:48:17;;;;;;;3.03;1.33;;;6.90;99.90;;;;;;10109602;28;20033;-71
2023/01/17 17:53:20;;;;;;;2.83;1.30;;;7.00;99.90;;;;;;10117445;28;20089;-70
2023/01/17 17:58:21;;;;;;;3.15;1.30;;;7.00;99.90;;;;;;10105978;28;20028;-71
2023/01/17 18:03:22;;;;;;;2.90;1.38;;;7.00;99.90;;;;;;10159467;28;20028;-70
2023/01/17 18:08:23;;;;;;;2.70;1.52;;;7.00;99.90;;;;;;10122984;28;20029;-71
2023/01/17 18:13:23;;;;;;;4.63;1.40;;;7.00;99.90;;;;;;10144316;28;20039;-71
2023/01/17 18:18:24;;;;;;;3.17;1.60;;;7.00;99.90;;;;;;10141098;28;20032;-77
2023/01/17 18:23:24;;;;;;;4.05;1.10;;;7.10;99.90;;;;;;10173981;28;20115;-72
2023/01/17 18:28:26;;;;;;;1.83;1.10;;;7.30;99.90;;;;;;10164607;28;20035;-70
2023/01/17 18:33:26;;;;;;;3.97;1.42;;;7.20;99.90;;;;;;10182118;28;20031;-70
2023/01/17 18:38:27;;;;;;;3.10;1.27;;;7.20;99.90;;;;;;10107978;28;20020;-71
2023/01/17 18:43:28;;;;;;;3.25;1.30;;;7.20;99.90;;;;;;10124262;28;20032;-69
2023/01/17 18:48:28;;;;;;;2.78;1.13;;;7.10;99.90;;;;;;10118963;28;20097;-67
2023/01/17 18:53:31;;;;;;;3.28;1.10;;;7.10;99.90;;;;;;10119568;28;20056;-70
2023/01/17 18:58:36;;;;;;;3.13;1.23;;;7.00;99.90;;;;;;10113837;28;20506;-71
2023/01/17 19:03:39;;;;;;;1.33;1.00;;;7.00;99.90;;;;;;10114766;28;20024;-68
2023/01/17 19:08:40;;;;;;;2.78;1.30;;;7.00;99.90;;;;;;10126335;28;20032;-69
2023/01/17 19:13:40;;;;;;;2.40;1.45;;;6.90;99.90;;;;;;10132977;28;20487;-69
2023/01/17 19:18:41;;;;;;;2.33;1.20;;;6.90;99.90;;;;;;10111832;28;20109;-69
2023/01/17 19:23:42;;;;;;;2.95;1.38;;;6.90;99.90;;;;;;10132160;28;20098;-69
2023/01/17 19:28:45;;;;;;;2.05;1.33;;;6.80;99.90;;;;;;10120939;28;20036;-69
2023/01/17 19:33:47;;;;;;;2.33;1.48;;;6.80;99.90;;;;;;10118947;28;20031;-69
2023/01/17 19:38:48;;;;;;;1.98;1.30;;;6.80;99.90;;;;;;10124919;28;20032;-69
2023/01/17 19:43:57;;;;;;;2.58;1.30;;;6.80;99.90;;;;;;10115246;28;20731;-70
2023/01/17 19:48:58;;;;;;;2.15;1.45;;;6.80;99.90;;;;;;10115060;28;20100;-69
2023/01/17 19:54:00;;;;;;;2.22;1.30;;;6.70;99.90;;;;;;10120777;28;20096;-69
2023/01/17 19:59:00;;;;;;;2.80;1.10;;;6.70;99.90;;;;;;10137067;28;20032;-70
2023/01/17 20:04:02;;;;;;;2.10;1.33;;;6.70;99.90;;;;;;10104377;28;20026;-70
2023/01/17 20:09:04;;;;;;;2.92;1.33;;;6.70;99.90;;;;;;10114942;28;20036;-70
2023/01/17 20:14:05;;;;;;;2.38;1.17;;;6.70;99.90;;;;;;10119853;28;20029;-70
2023/01/17 20:19:05;;;;;;;2.88;1.35;;;6.60;99.90;;;;;;10129095;28;20072;-70
2023/01/17 20:24:07;;;;;;;2.20;1.27;;;6.60;99.90;;;;;;10134886;28;20040;-70
2023/01/17 20:29:16;;;;;;;1.63;1.30;;;6.60;99.90;;;;;;10131971;28;20446;-70
2023/01/17 20:34:17;;;;;;;2.47;1.25;;;6.60;99.90;;;;;;10116258;28;20095;-70
2023/01/17 20:39:18;;;;;;;2.75;1.38;;;6.60;99.90;;;;;;10147024;28;20419;-70
2023/01/17 20:44:19;;;;;;;2.33;1.20;;;6.60;99.90;;;;;;10119325;28;20043;-70
2023/01/17 20:49:20;;;;;;;2.08;1.20;;;6.50;99.90;;;;;;10116502;28;20054;-70
2023/01/17 20:54:22;;;;;;;2.70;1.40;;;6.50;99.90;;;;;;10116960;28;20056;-70
2023/01/17 20:59:22;;;;;;;2.30;1.58;;;6.50;99.90;;;;;;10149205;28;20405;-70
2023/01/17 21:04:26;;;;;;;1.58;1.30;;;6.50;99.90;;;;;;10112218;28;20044;-70
2023/01/17 21:09:26;;;;;;;3.05;1.50;;;6.50;99.90;;;;;;10114055;28;20148;-70
2023/01/17 21:14:28;;;;;;;3.78;1.65;;;6.90;99.90;;;;;;10143506;28;20205;-70
2023/01/17 21:19:28;;;;;;;2.38;1.15;;;6.50;99.90;;;;;;10124151;28;20029;-70
2023/01/17 21:24:29;;;;;;;2.55;1.25;;;6.70;99.90;;;;;;10123405;28;20446;-70
2023/01/17 21:29:31;;;;;;;1.83;1.15;;;6.40;99.90;;;;;;10120997;28;20386;-70
2023/01/17 21:34:33;;;;;;;2.17;1.38;;;6.40;99.90;;;;;;10114642;28;20052;-70
2023/01/17 21:39:33;;;;;;;3.03;1.38;;;6.40;99.90;;;;;;10127667;28;20104;-70
2023/01/17 21:44:37;;;;;;;2.67;1.40;;;6.40;99.90;;;;;;10129107;28;20040;-70
2023/01/17 21:49:37;;;;;;;4.47;1.67;;;7.20;99.90;;;;;;10148850;28;20079;-70
2023/01/17 21:59:57;;;;;;;2.72;1.42;;;6.30;99.90;;;;;;10114314;28;20111;-70
2023/01/17 22:04:58;;;;;;;3.45;1.92;;;6.30;99.90;;;;;;10133373;28;20025;-70
2023/01/17 22:09:59;;;;;;;3.50;1.63;;;6.30;99.90;;;;;;10104426;28;20216;-70
2023/01/17 22:14:59;;;;;;;3.33;1.52;;;6.30;99.90;;;;;;10108655;28;20100;-70
2023/01/17 22:20:00;;;;;;;2.53;1.67;;;6.30;99.90;;;;;;10131017;28;20095;-71
2023/01/17 22:25:01;;;;;;;3.53;1.75;;;6.20;99.90;;;;;;10129081;28;20029;-72
2023/01/17 22:30:01;;;;;;;4.03;2.25;;;6.30;99.90;;;;;;10121770;28;20107;-71
2023/01/17 22:35:08;;;;;;;3.05;2.10;;;6.20;99.90;;;;;;10106353;28;20396;-71
2023/01/17 22:40:11;;;;;;;2.97;1.80;;;6.20;99.90;;;;;;10146061;28;20517;-71
2023/01/17 22:45:12;;;;;;;3.42;1.70;;;6.20;99.90;;;;;;10104391;28;20120;-71
2023/01/17 22:50:12;;;;;;;2.53;1.80;;;6.20;99.90;;;;;;10115186;28;20035;-71
2023/01/17 22:55:13;;;;;;;3.25;1.83;;;6.20;99.90;;;;;;10162727;28;20121;-71
2023/01/17 23:00:14;;;;;;;3.78;1.90;;;6.20;99.90;;;;;;10115055;28;20025;-71
2023/01/17 23:05:15;;;;;;;4.03;2.13;;;6.20;99.90;;;;;;10112287;28;20041;-71
2023/01/17 23:11:37;;;;;;;4.22;2.00;;;6.10;99.90;;;;;;10141780;28;20029;-72
2023/01/17 23:20:56;;;;;;;2.95;1.85;;;6.10;99.90;;;;;;10141283;28;20026;-71
2023/01/17 23:26:00;;;;;;;4.05;2.08;;;6.10;99.90;;;;;;10118403;28;20033;-71
2023/01/17 23:31:02;;;;;;;2.78;1.65;;;6.10;99.90;;;;;;10107270;28;20021;-71
2023/01/17 23:36:07;;;;;;;4.10;2.17;;;6.10;99.90;;;;;;10108622;28;20025;-71
2023/01/17 23:46:28;;;;;;;;;;;6.10;99.90;;;;;;10129439;28;20032;-71
2023/01/17 23:51:29;;;;;;;2.30;1.77;;;6.00;99.90;;;;;;10143246;28;19911;-71
2023/01/17 23:56:30;;;;;;;3.30;1.95;;;6.00;99.90;;;;;;10114895;28;20614;-71
